Terminal Aerodrome Forecast
Issued by NWS Blacksburg, VA

Current Version | Previous Version | Graphics & Text | Print | Product List | Glossary On
Versions: 1 2 3 4 5 6 7 8 9 10 11 12 13 14 15 16 17 18 19 20 21 22 23 24 25 26 27 28 29 30 31 32 33 34 35 36 37 38 39 40
000
FTUS41 KRNK 271932 AAA
TAFBLF
TAF AMD
KBLF 271932Z 2720/2818 24012G22KT P6SM -SHRA BKN040 BKN100
     FM272300 26012G22KT 6SM -SHRA VCTS BKN035CB
      TEMPO 2723/2802 2SM TSRA BR OVC025CB
     FM280400 26010KT P6SM BKN050
     FM280900 27012KT P6SM BKN025 OVC035
     FM281400 29013G26KT P6SM BKN015 BKN030=

USA.gov is the U.S. government's official web portal to all federal, state and local government web resources and services.